Time;durP1;ratioP1;P1;durP2;ratioP2;P2;SDS_P1;SDS_P2;PMS_P1;PMS_P2;Temp;Humidity;BMP_temperature;BMP_pressure;BME280_temperature;BME280_humidity;BME280_pressure;Samples;Min_cycle;Max_cycle;Signal;HPM_P1;HPM_P2
2020/09/05 00:01:25;;;;;;;2.23;1.35;;;;;;;21.33;65.87;100579.80;;;;-45
2020/09/05 00:04:25;;;;;;;1.57;1.29;;;;;;;21.32;65.88;100574.52;;;;-45
2020/09/05 00:07:25;;;;;;;1.65;1.43;;;;;;;21.32;65.88;100570.27;;;;-45
2020/09/05 00:10:25;;;;;;;2.13;1.43;;;;;;;21.32;65.88;100571.09;;;;-44
2020/09/05 00:13:25;;;;;;;1.84;1.45;;;;;;;21.30;65.96;100571.00;;;;-46
2020/09/05 00:16:25;;;;;;;1.67;1.33;;;;;;;21.30;65.86;100563.74;;;;-44
2020/09/05 00:19:25;;;;;;;1.40;1.30;;;;;;;21.29;65.91;100559.44;;;;-45
2020/09/05 00:22:25;;;;;;;3.11;1.42;;;;;;;21.29;65.93;100552.43;;;;-44
2020/09/05 00:25:25;;;;;;;1.59;1.30;;;;;;;21.30;65.86;100551.03;;;;-44
2020/09/05 00:28:25;;;;;;;1.81;1.38;;;;;;;21.29;65.93;100542.63;;;;-44
2020/09/05 00:31:25;;;;;;;1.61;1.51;;;;;;;21.28;65.90;100535.63;;;;-44
2020/09/05 00:34:25;;;;;;;1.50;1.40;;;;;;;21.28;65.88;100530.81;;;;-44
2020/09/05 00:37:25;;;;;;;1.68;1.34;;;;;;;21.26;65.95;100519.23;;;;-44
2020/09/05 00:40:25;;;;;;;1.84;1.50;;;;;;;21.27;65.96;100512.38;;;;-44
2020/09/05 00:43:25;;;;;;;1.69;1.50;;;;;;;21.26;65.86;100508.73;;;;-44
2020/09/05 00:46:25;;;;;;;1.40;1.30;;;;;;;21.26;65.93;100502.29;;;;-44
2020/09/05 00:49:25;;;;;;;1.40;1.30;;;;;;;21.25;65.96;100495.45;;;;-44
2020/09/05 00:52:25;;;;;;;1.57;1.37;;;;;;;21.25;65.98;100498.31;;;;-45
2020/09/05 00:55:25;;;;;;;1.44;1.34;;;;;;;21.25;65.95;100494.29;;;;-44
2020/09/05 00:58:25;;;;;;;1.50;1.40;;;;;;;21.25;65.96;100491.77;;;;-44
2020/09/05 01:01:25;;;;;;;1.59;1.49;;;;;;;21.24;65.92;100488.10;;;;-44
2020/09/05 01:04:25;;;;;;;1.39;1.29;;;;;;;21.24;65.96;100484.77;;;;-44
2020/09/05 01:07:25;;;;;;;1.40;1.30;;;;;;;21.23;65.95;100480.92;;;;-44
2020/09/05 01:10:25;;;;;;;1.50;1.40;;;;;;;21.23;65.96;100477.09;;;;-44
2020/09/05 01:13:25;;;;;;;1.43;1.33;;;;;;;21.22;66.01;100475.31;;;;-44
2020/09/05 01:16:25;;;;;;;1.40;1.30;;;;;;;21.23;66.06;100473.75;;;;-44
2020/09/05 01:19:25;;;;;;;1.79;1.39;;;;;;;21.21;66.00;100465.62;;;;-44
2020/09/05 01:22:25;;;;;;;1.51;1.30;;;;;;;21.22;66.04;100461.63;;;;-44
2020/09/05 01:25:25;;;;;;;1.75;1.40;;;;;;;21.22;65.98;100463.41;;;;-44
2020/09/05 01:28:25;;;;;;;1.51;1.41;;;;;;;21.21;65.98;100461.06;;;;-44
2020/09/05 01:31:25;;;;;;;2.23;1.40;;;;;;;21.22;65.98;100461.05;;;;-44
2020/09/05 01:34:25;;;;;;;1.40;1.30;;;;;;;21.22;65.99;100455.10;;;;-44
2020/09/05 01:37:25;;;;;;;1.40;1.30;;;;;;;21.21;65.94;100454.54;;;;-44
2020/09/05 01:40:25;;;;;;;1.83;1.40;;;;;;;21.20;65.99;100449.06;;;;-44
2020/09/05 01:43:25;;;;;;;1.40;1.30;;;;;;;21.20;66.01;100447.19;;;;-44
2020/09/05 01:46:25;;;;;;;1.41;1.31;;;;;;;21.20;66.04;100448.73;;;;-44
2020/09/05 01:49:25;;;;;;;1.93;1.40;;;;;;;21.20;66.03;100446.78;;;;-44
2020/09/05 01:52:26;;;;;;;1.30;1.20;;;;;;;21.20;66.06;100445.89;;;;-44
2020/09/05 01:55:25;;;;;;;1.67;1.43;;;;;;;21.19;66.06;100442.80;;;;-45
2020/09/05 01:58:25;;;;;;;1.51;1.41;;;;;;;21.20;66.07;100441.98;;;;-45
2020/09/05 02:01:25;;;;;;;1.64;1.41;;;;;;;21.19;65.94;100444.28;;;;-45
2020/09/05 02:04:25;;;;;;;1.50;1.40;;;;;;;21.19;66.03;100444.12;;;;-44
2020/09/05 02:07:25;;;;;;;1.40;1.30;;;;;;;21.19;66.03;100442.65;;;;-44
2020/09/05 02:10:25;;;;;;;1.33;1.23;;;;;;;21.18;66.02;100443.94;;;;-44
2020/09/05 02:13:25;;;;;;;1.50;1.40;;;;;;;21.18;66.02;100443.36;;;;-43
2020/09/05 02:16:25;;;;;;;2.52;1.39;;;;;;;21.18;66.03;100439.12;;;;-44
2020/09/05 02:19:25;;;;;;;2.43;1.43;;;;;;;21.18;66.02;100447.03;;;;-44
2020/09/05 02:22:25;;;;;;;1.50;1.40;;;;;;;21.18;66.02;100440.34;;;;-44
2020/09/05 02:25:25;;;;;;;1.96;1.33;;;;;;;21.18;66.01;100440.75;;;;-44
2020/09/05 02:28:25;;;;;;;1.41;1.31;;;;;;;21.18;66.00;100432.69;;;;-44
2020/09/05 02:31:25;;;;;;;1.43;1.30;;;;;;;21.18;66.01;100433.02;;;;-44
2020/09/05 02:34:25;;;;;;;1.40;1.30;;;;;;;21.18;66.01;100427.06;;;;-44
2020/09/05 02:37:25;;;;;;;1.43;1.25;;;;;;;21.18;66.01;100423.96;;;;-44
2020/09/05 02:40:25;;;;;;;1.55;1.40;;;;;;;21.18;65.95;100416.23;;;;-44
2020/09/05 02:43:25;;;;;;;1.50;1.40;;;;;;;21.17;66.04;100412.00;;;;-44
2020/09/05 02:46:25;;;;;;;1.53;1.38;;;;;;;21.18;66.00;100402.38;;;;-44
2020/09/05 02:49:25;;;;;;;1.43;1.33;;;;;;;21.18;66.02;100400.25;;;;-44
2020/09/05 02:52:25;;;;;;;1.30;1.21;;;;;;;21.17;65.95;100403.45;;;;-43
2020/09/05 02:55:25;;;;;;;1.41;1.31;;;;;;;21.17;65.97;100399.70;;;;-44
2020/09/05 02:58:25;;;;;;;1.40;1.30;;;;;;;21.17;66.04;100400.77;;;;-44
2020/09/05 03:01:25;;;;;;;2.39;1.47;;;;;;;21.17;65.96;100401.25;;;;-44
2020/09/05 03:04:25;;;;;;;1.40;1.30;;;;;;;21.16;66.05;100403.19;;;;-44
2020/09/05 03:07:25;;;;;;;1.43;1.33;;;;;;;21.16;66.00;100401.39;;;;-43
2020/09/05 03:10:25;;;;;;;1.30;1.20;;;;;;;21.16;66.02;100403.09;;;;-44
2020/09/05 03:13:25;;;;;;;1.40;1.30;;;;;;;21.16;66.00;100399.77;;;;-46
2020/09/05 03:16:25;;;;;;;1.44;1.28;;;;;;;21.15;66.03;100396.44;;;;-44
2020/09/05 03:19:25;;;;;;;1.69;1.33;;;;;;;21.16;66.04;100396.52;;;;-44
2020/09/05 03:22:25;;;;;;;1.48;1.38;;;;;;;21.15;66.05;100391.05;;;;-44
2020/09/05 03:25:25;;;;;;;1.49;1.39;;;;;;;21.15;65.98;100390.48;;;;-44
2020/09/05 03:28:25;;;;;;;1.40;1.30;;;;;;;21.15;66.04;100385.77;;;;-45
2020/09/05 03:31:25;;;;;;;1.65;1.30;;;;;;;21.14;66.05;100382.65;;;;-44
2020/09/05 03:34:25;;;;;;;1.40;1.30;;;;;;;21.14;66.03;100374.17;;;;-44
2020/09/05 03:37:25;;;;;;;1.41;1.31;;;;;;;21.14;65.99;100371.58;;;;-44
2020/09/05 03:40:25;;;;;;;1.45;1.35;;;;;;;21.13;66.04;100368.41;;;;-44
2020/09/05 03:43:25;;;;;;;1.43;1.33;;;;;;;21.13;66.04;100366.61;;;;-44
2020/09/05 03:46:25;;;;;;;1.47;1.37;;;;;;;21.14;66.04;100363.10;;;;-44
2020/09/05 03:49:25;;;;;;;1.50;1.40;;;;;;;21.14;66.00;100363.10;;;;-44
2020/09/05 03:52:25;;;;;;;1.40;1.30;;;;;;;21.13;66.04;100358.55;;;;-44
2020/09/05 03:55:25;;;;;;;1.49;1.39;;;;;;;21.12;66.03;100355.35;;;;-44
2020/09/05 03:58:25;;;;;;;1.41;1.31;;;;;;;21.13;66.01;100358.31;;;;-44
2020/09/05 04:01:25;;;;;;;1.51;1.34;;;;;;;21.13;66.04;100355.04;;;;-44
2020/09/05 04:04:25;;;;;;;1.53;1.43;;;;;;;21.12;66.07;100357.23;;;;-44
2020/09/05 04:07:25;;;;;;;1.40;1.30;;;;;;;21.12;66.05;100352.50;;;;-44
2020/09/05 04:10:25;;;;;;;1.51;1.41;;;;;;;21.12;66.08;100350.64;;;;-45
2020/09/05 04:13:25;;;;;;;1.51;1.41;;;;;;;21.12;66.04;100351.61;;;;-44
2020/09/05 04:16:25;;;;;;;1.57;1.47;;;;;;;21.12;66.09;100351.53;;;;-44
2020/09/05 04:19:25;;;;;;;1.40;1.30;;;;;;;21.12;66.03;100349.91;;;;-44
2020/09/05 04:22:25;;;;;;;1.35;1.25;;;;;;;21.12;66.06;100355.28;;;;-44
2020/09/05 04:25:25;;;;;;;1.40;1.30;;;;;;;21.11;66.01;100351.13;;;;-44
2020/09/05 04:28:25;;;;;;;1.65;1.30;;;;;;;21.11;66.05;100349.75;;;;-44
2020/09/05 04:31:25;;;;;;;1.50;1.40;;;;;;;21.11;66.02;100349.66;;;;-44
2020/09/05 04:34:25;;;;;;;1.40;1.30;;;;;;;21.11;66.05;100352.11;;;;-44
2020/09/05 04:37:25;;;;;;;1.31;1.21;;;;;;;21.11;66.04;100350.08;;;;-44
2020/09/05 04:40:25;;;;;;;1.40;1.30;;;;;;;21.11;66.05;100346.58;;;;-44
2020/09/05 04:43:25;;;;;;;1.57;1.40;;;;;;;21.11;66.07;100343.24;;;;-44
2020/09/05 04:46:25;;;;;;;1.36;1.26;;;;;;;21.11;66.04;100340.63;;;;-44
2020/09/05 04:49:25;;;;;;;1.38;1.28;;;;;;;21.11;66.05;100343.24;;;;-44
2020/09/05 04:52:25;;;;;;;1.59;1.49;;;;;;;21.10;66.07;100345.02;;;;-44
2020/09/05 04:55:25;;;;;;;1.43;1.33;;;;;;;21.11;66.04;100346.50;;;;-44
2020/09/05 04:58:25;;;;;;;1.40;1.30;;;;;;;21.10;66.04;100352.09;;;;-44
2020/09/05 05:01:25;;;;;;;1.40;1.30;;;;;;;21.10;66.07;100343.62;;;;-44
2020/09/05 05:04:25;;;;;;;1.51;1.41;;;;;;;21.10;66.07;100348.84;;;;-44
2020/09/05 05:07:25;;;;;;;1.45;1.35;;;;;;;21.09;66.10;100348.77;;;;-56
2020/09/05 05:10:25;;;;;;;1.43;1.33;;;;;;;21.10;66.09;100350.23;;;;-55
2020/09/05 05:13:25;;;;;;;3.73;2.57;;;;;;;21.08;65.89;100351.39;;;;-58
2020/09/05 05:16:25;;;;;;;3.30;2.87;;;;;;;21.04;65.94;100355.70;;;;-56
2020/09/05 05:19:25;;;;;;;4.15;2.91;;;;;;;21.01;65.95;100360.36;;;;-58
2020/09/05 05:22:25;;;;;;;8.15;3.31;;;;;;;20.97;66.10;100356.85;;;;-58
2020/09/05 05:25:25;;;;;;;4.55;3.30;;;;;;;20.93;66.04;100356.22;;;;-57
2020/09/05 05:28:25;;;;;;;4.41;3.55;;;;;;;20.91;66.07;100356.87;;;;-58
2020/09/05 05:31:25;;;;;;;4.27;3.34;;;;;;;20.87;66.23;100356.45;;;;-55
2020/09/05 05:34:25;;;;;;;4.65;3.67;;;;;;;20.85;66.06;100353.52;;;;-57
2020/09/05 05:37:25;;;;;;;3.99;3.50;;;;;;;20.79;66.25;100347.02;;;;-57
2020/09/05 05:40:25;;;;;;;4.72;3.55;;;;;;;20.77;66.44;100346.70;;;;-57
2020/09/05 05:43:25;;;;;;;4.58;3.91;;;;;;;20.78;66.42;100356.07;;;;-56
2020/09/05 05:46:25;;;;;;;5.76;3.65;;;;;;;20.77;66.48;100355.76;;;;-56
2020/09/05 05:49:25;;;;;;;4.67;3.41;;;;;;;20.78;66.53;100355.98;;;;-56
2020/09/05 05:52:25;;;;;;;4.96;3.34;;;;;;;20.79;66.60;100359.23;;;;-56
2020/09/05 05:55:24;;;;;;;5.25;3.43;;;;;;;20.79;66.57;100354.94;;;;-57
2020/09/05 05:58:25;;;;;;;6.63;3.49;;;;;;;20.80;66.62;100355.33;;;;-56
2020/09/05 06:01:25;;;;;;;4.46;3.55;;;;;;;20.81;66.69;100359.48;;;;-56
2020/09/05 06:04:25;;;;;;;6.03;3.49;;;;;;;20.81;66.74;100354.27;;;;-57
2020/09/05 06:07:25;;;;;;;4.28;3.59;;;;;;;20.81;66.77;100356.13;;;;-57
2020/09/05 06:10:25;;;;;;;6.20;3.43;;;;;;;20.81;66.82;100354.34;;;;-56
2020/09/05 06:13:25;;;;;;;4.77;3.25;;;;;;;20.82;66.83;100354.45;;;;-56
2020/09/05 06:16:25;;;;;;;4.51;3.47;;;;;;;20.82;66.90;100361.77;;;;-56
2020/09/05 06:19:25;;;;;;;4.49;3.42;;;;;;;20.82;66.89;100364.87;;;;-56
2020/09/05 06:22:25;;;;;;;4.67;3.53;;;;;;;20.82;67.03;100365.52;;;;-56
2020/09/05 06:25:25;;;;;;;4.46;3.46;;;;;;;20.82;67.10;100357.78;;;;-56
2020/09/05 06:28:25;;;;;;;5.52;3.43;;;;;;;20.82;67.02;100350.28;;;;-57
2020/09/05 06:31:25;;;;;;;4.83;3.48;;;;;;;20.82;67.06;100350.94;;;;-56
2020/09/05 06:34:25;;;;;;;4.00;3.56;;;;;;;20.82;67.14;100356.23;;;;-57
2020/09/05 06:37:25;;;;;;;3.92;3.50;;;;;;;20.83;67.16;100355.00;;;;-56
2020/09/05 06:40:25;;;;;;;4.41;3.62;;;;;;;20.83;67.24;100365.51;;;;-56
2020/09/05 06:43:25;;;;;;;5.95;3.50;;;;;;;20.83;67.36;100381.88;;;;-56
2020/09/05 06:46:25;;;;;;;4.22;3.45;;;;;;;20.83;67.36;100383.19;;;;-56
2020/09/05 06:49:25;;;;;;;5.21;3.45;;;;;;;20.83;67.49;100386.60;;;;-57
2020/09/05 06:52:25;;;;;;;4.71;3.45;;;;;;;20.83;67.58;100391.97;;;;-56
2020/09/05 06:55:25;;;;;;;4.23;3.34;;;;;;;20.83;67.67;100397.75;;;;-56
2020/09/05 06:58:25;;;;;;;3.57;3.27;;;;;;;20.83;67.72;100408.27;;;;-56
2020/09/05 07:01:25;;;;;;;4.53;3.26;;;;;;;20.84;67.74;100404.86;;;;-57
2020/09/05 07:04:25;;;;;;;4.90;3.44;;;;;;;20.83;67.80;100415.59;;;;-57
2020/09/05 07:07:25;;;;;;;4.27;3.35;;;;;;;20.84;67.81;100428.15;;;;-57
2020/09/05 07:10:25;;;;;;;3.61;3.31;;;;;;;20.84;67.85;100437.44;;;;-57
2020/09/05 07:13:25;;;;;;;4.39;3.31;;;;;;;20.83;67.93;100435.30;;;;-56
2020/09/05 07:16:25;;;;;;;3.45;3.15;;;;;;;20.84;67.93;100433.77;;;;-57
2020/09/05 07:19:25;;;;;;;3.49;3.19;;;;;;;20.85;67.99;100434.91;;;;-57
2020/09/05 07:22:25;;;;;;;3.95;3.48;;;;;;;20.84;68.06;100443.06;;;;-56
2020/09/05 07:25:25;;;;;;;3.67;3.21;;;;;;;20.84;68.07;100467.09;;;;-56
2020/09/05 07:28:25;;;;;;;5.23;3.37;;;;;;;20.84;68.12;100485.26;;;;-56
2020/09/05 07:31:25;;;;;;;3.78;3.28;;;;;;;20.84;68.15;100492.98;;;;-56
2020/09/05 07:34:25;;;;;;;4.69;3.45;;;;;;;20.85;68.08;100497.70;;;;-57
2020/09/05 07:37:25;;;;;;;3.79;3.42;;;;;;;20.85;68.14;100503.49;;;;-56
2020/09/05 07:40:25;;;;;;;3.60;3.30;;;;;;;20.84;68.15;100500.16;;;;-56
2020/09/05 07:43:25;;;;;;;3.90;3.49;;;;;;;20.85;68.21;100498.84;;;;-56
2020/09/05 07:46:25;;;;;;;4.62;3.34;;;;;;;20.85;68.22;100496.48;;;;-57
2020/09/05 07:49:25;;;;;;;4.51;3.49;;;;;;;20.85;68.24;100488.98;;;;-57
2020/09/05 07:52:25;;;;;;;3.71;3.41;;;;;;;20.85;68.33;100488.73;;;;-57
2020/09/05 07:55:25;;;;;;;8.04;3.49;;;;;;;20.86;68.34;100472.39;;;;-57
2020/09/05 07:58:25;;;;;;;8.05;3.52;;;;;;;20.88;68.23;100460.49;;;;-56
2020/09/05 08:01:25;;;;;;;4.63;3.05;;;;;;;20.89;68.12;100463.65;;;;-57
2020/09/05 08:04:25;;;;;;;4.53;3.39;;;;;;;20.93;68.27;100469.12;;;;-54
2020/09/05 08:07:25;;;;;;;11.39;3.82;;;;;;;20.96;68.46;100476.31;;;;-53
2020/09/05 08:10:25;;;;;;;10.73;3.52;;;;;;;20.99;68.26;100479.14;;;;-56
2020/09/05 08:13:25;;;;;;;6.21;3.31;;;;;;;21.01;68.08;100465.13;;;;-53
2020/09/05 08:16:25;;;;;;;9.94;3.53;;;;;;;21.05;68.17;100467.59;;;;-54
2020/09/05 08:19:25;;;;;;;5.34;3.38;;;;;;;21.06;68.08;100466.75;;;;-54
2020/09/05 08:22:25;;;;;;;8.64;3.58;;;;;;;21.08;68.08;100483.53;;;;-52
2020/09/05 08:25:25;;;;;;;8.20;3.50;;;;;;;21.09;68.21;100483.95;;;;-52
2020/09/05 08:28:25;;;;;;;6.29;3.19;;;;;;;21.11;68.54;100486.73;;;;-55
2020/09/05 08:31:25;;;;;;;7.26;3.51;;;;;;;21.12;68.39;100498.78;;;;-56
2020/09/05 08:34:25;;;;;;;5.05;3.18;;;;;;;21.14;68.42;100505.30;;;;-57
2020/09/05 08:37:25;;;;;;;5.57;3.16;;;;;;;21.16;68.54;100512.96;;;;-60
2020/09/05 08:40:25;;;;;;;6.03;3.37;;;;;;;21.16;68.54;100517.28;;;;-51
2020/09/05 08:43:25;;;;;;;6.13;3.20;;;;;;;21.18;68.72;100518.34;;;;-51
2020/09/05 08:46:25;;;;;;;4.68;3.18;;;;;;;21.20;68.71;100519.48;;;;-51
2020/09/05 08:49:25;;;;;;;4.36;3.11;;;;;;;21.22;68.81;100520.63;;;;-52
2020/09/05 08:52:25;;;;;;;5.30;3.30;;;;;;;21.23;68.73;100525.67;;;;-55
2020/09/05 08:55:25;;;;;;;6.88;3.36;;;;;;;21.22;68.53;100522.00;;;;-57
2020/09/05 08:58:25;;;;;;;13.23;3.58;;;;;;;21.22;68.39;100524.61;;;;-57
2020/09/05 09:01:25;;;;;;;6.96;3.26;;;;;;;21.23;68.42;100532.03;;;;-57
2020/09/05 09:04:25;;;;;;;7.55;3.45;;;;;;;21.23;68.36;100530.40;;;;-57
2020/09/05 09:07:25;;;;;;;8.45;3.59;;;;;;;21.23;68.21;100538.14;;;;-57
2020/09/05 09:10:25;;;;;;;6.16;3.45;;;;;;;21.23;68.02;100548.11;;;;-57
2020/09/05 09:13:25;;;;;;;5.81;3.34;;;;;;;21.23;68.01;100550.14;;;;-58
2020/09/05 09:16:25;;;;;;;6.93;3.21;;;;;;;21.23;67.98;100549.57;;;;-57
2020/09/05 09:19:25;;;;;;;3.35;2.86;;;;;;;21.23;67.92;100541.32;;;;-57
2020/09/05 09:22:25;;;;;;;4.75;3.01;;;;;;;21.23;67.94;100551.53;;;;-57
2020/09/05 09:25:25;;;;;;;4.07;3.09;;;;;;;21.23;67.82;100553.16;;;;-57
2020/09/05 09:28:25;;;;;;;3.69;2.89;;;;;;;21.23;67.80;100549.14;;;;-57
2020/09/05 09:31:25;;;;;;;6.79;3.10;;;;;;;21.23;67.67;100548.68;;;;-57
2020/09/05 09:34:25;;;;;;;4.42;3.17;;;;;;;21.22;67.63;100546.55;;;;-57
2020/09/05 09:37:25;;;;;;;4.19;3.12;;;;;;;21.22;67.61;100533.58;;;;-57
2020/09/05 09:40:24;;;;;;;5.02;2.95;;;;;;;21.23;67.58;100531.70;;;;-58
2020/09/05 09:43:25;;;;;;;4.84;3.13;;;;;;;21.22;67.57;100535.22;;;;-58
2020/09/05 09:46:25;;;;;;;4.26;3.21;;;;;;;21.21;67.49;100539.38;;;;-57
2020/09/05 09:49:25;;;;;;;5.47;3.13;;;;;;;21.21;67.54;100535.72;;;;-57
2020/09/05 09:52:25;;;;;;;3.67;3.02;;;;;;;21.21;67.55;100536.37;;;;-57
2020/09/05 09:55:25;;;;;;;3.32;3.02;;;;;;;21.21;67.55;100530.83;;;;-57
2020/09/05 09:58:25;;;;;;;4.55;3.05;;;;;;;21.21;67.41;100527.48;;;;-59
2020/09/05 10:01:25;;;;;;;5.01;3.07;;;;;;;21.22;67.51;100522.91;;;;-59
2020/09/05 10:04:25;;;;;;;5.26;3.31;;;;;;;21.22;67.42;100522.91;;;;-59
2020/09/05 10:07:25;;;;;;;3.98;2.85;;;;;;;21.22;67.40;100522.50;;;;-59
2020/09/05 10:10:25;;;;;;;4.13;2.87;;;;;;;21.21;67.39;100519.17;;;;-59
2020/09/05 10:13:25;;;;;;;6.35;3.12;;;;;;;21.21;67.40;100512.25;;;;-54
2020/09/05 10:16:25;;;;;;;4.74;3.00;;;;;;;21.22;67.41;100513.62;;;;-54
2020/09/05 10:19:25;;;;;;;5.07;3.00;;;;;;;21.23;67.35;100512.00;;;;-58
2020/09/05 10:22:25;;;;;;;3.36;2.89;;;;;;;21.24;67.37;100511.98;;;;-56
2020/09/05 10:25:25;;;;;;;4.59;2.73;;;;;;;21.24;67.40;100509.30;;;;-57
2020/09/05 10:28:25;;;;;;;3.66;3.06;;;;;;;21.24;67.50;100514.10;;;;-56
2020/09/05 10:31:25;;;;;;;5.75;2.89;;;;;;;21.25;67.36;100513.63;;;;-56
2020/09/05 10:34:25;;;;;;;4.33;2.66;;;;;;;21.26;67.35;100510.20;;;;-56
2020/09/05 10:37:25;;;;;;;3.74;2.63;;;;;;;21.24;67.44;100510.11;;;;-54
2020/09/05 10:40:25;;;;;;;4.97;3.00;;;;;;;21.26;67.43;100504.82;;;;-52
2020/09/05 10:43:25;;;;;;;5.99;3.02;;;;;;;21.27;67.51;100509.77;;;;-53
2020/09/05 10:46:25;;;;;;;5.39;2.93;;;;;;;21.30;67.48;100512.80;;;;-56
2020/09/05 10:49:25;;;;;;;3.58;2.57;;;;;;;21.32;67.50;100518.43;;;;-58
2020/09/05 10:52:25;;;;;;;7.13;3.00;;;;;;;21.34;67.38;100515.17;;;;-55
2020/09/05 10:55:25;;;;;;;3.71;2.90;;;;;;;21.35;67.46;100524.45;;;;-53
2020/09/05 10:58:25;;;;;;;3.53;2.90;;;;;;;21.36;67.37;100528.22;;;;-53
2020/09/05 11:01:25;;;;;;;6.71;3.10;;;;;;;21.38;67.37;100531.31;;;;-54
2020/09/05 11:04:25;;;;;;;4.37;3.06;;;;;;;21.39;67.36;100529.67;;;;-52
2020/09/05 11:07:25;;;;;;;5.63;3.15;;;;;;;21.40;67.33;100531.95;;;;-60
2020/09/05 11:10:25;;;;;;;7.17;3.51;;;;;;;21.39;67.44;100526.65;;;;-54
2020/09/05 11:13:25;;;;;;;5.57;3.15;;;;;;;21.41;67.43;100530.40;;;;-56
2020/09/05 11:16:25;;;;;;;6.50;3.35;;;;;;;21.44;67.41;100531.75;;;;-57
2020/09/05 11:19:25;;;;;;;4.33;3.01;;;;;;;21.45;67.42;100530.27;;;;-55
2020/09/05 11:22:25;;;;;;;5.81;3.15;;;;;;;21.44;67.32;100525.64;;;;-55
2020/09/05 11:25:25;;;;;;;4.45;3.01;;;;;;;21.44;67.29;100521.88;;;;-54
2020/09/05 11:28:25;;;;;;;4.93;3.14;;;;;;;21.44;67.26;100525.31;;;;-55
2020/09/05 11:31:25;;;;;;;3.97;2.99;;;;;;;21.44;67.17;100525.64;;;;-49
2020/09/05 11:34:25;;;;;;;4.93;3.15;;;;;;;21.44;67.12;100520.50;;;;-49
2020/09/05 11:37:25;;;;;;;5.95;3.09;;;;;;;21.44;67.11;100521.64;;;;-49
2020/09/05 11:40:25;;;;;;;5.14;3.09;;;;;;;21.42;67.10;100520.17;;;;-50
2020/09/05 11:43:25;;;;;;;5.09;3.06;;;;;;;21.43;67.05;100521.87;;;;-49
2020/09/05 11:46:25;;;;;;;4.21;3.27;;;;;;;21.42;67.09;100523.08;;;;-50
2020/09/05 11:49:25;;;;;;;3.43;3.01;;;;;;;21.41;67.09;100520.77;;;;-50
2020/09/05 11:52:25;;;;;;;3.42;2.95;;;;;;;21.41;67.01;100525.91;;;;-50
2020/09/05 11:55:25;;;;;;;5.11;3.16;;;;;;;21.41;66.94;100519.31;;;;-49
2020/09/05 11:58:25;;;;;;;5.35;3.17;;;;;;;21.40;67.00;100522.66;;;;-45
2020/09/05 12:01:25;;;;;;;3.41;3.08;;;;;;;21.40;67.02;100528.95;;;;-49
2020/09/05 12:04:25;;;;;;;5.10;3.20;;;;;;;21.39;67.00;100530.91;;;;-48
2020/09/05 12:07:25;;;;;;;3.85;3.19;;;;;;;21.40;67.06;100529.03;;;;-49
2020/09/05 12:10:25;;;;;;;3.28;2.97;;;;;;;21.39;67.04;100535.37;;;;-45
2020/09/05 12:13:25;;;;;;;3.49;3.18;;;;;;;21.39;66.92;100534.89;;;;-47
2020/09/05 12:16:25;;;;;;;5.41;3.04;;;;;;;21.38;67.00;100530.41;;;;-45
2020/09/05 12:19:25;;;;;;;3.34;3.04;;;;;;;21.38;66.97;100530.73;;;;-45
2020/09/05 12:22:25;;;;;;;5.90;3.09;;;;;;;21.38;66.94;100535.06;;;;-45
2020/09/05 12:25:25;;;;;;;3.39;2.99;;;;;;;21.38;66.99;100535.38;;;;-47
2020/09/05 12:28:25;;;;;;;3.88;3.11;;;;;;;21.37;66.94;100534.83;;;;-45
2020/09/05 12:31:25;;;;;;;3.29;2.99;;;;;;;21.37;67.00;100530.15;;;;-45
2020/09/05 12:34:24;;;;;;;3.23;2.89;;;;;;;21.37;66.97;100536.34;;;;-45
2020/09/05 12:37:25;;;;;;;4.05;3.29;;;;;;;21.37;66.96;100532.44;;;;-50
2020/09/05 12:40:25;;;;;;;4.73;3.11;;;;;;;21.36;66.97;100528.94;;;;-50
2020/09/05 12:43:25;;;;;;;4.59;3.10;;;;;;;21.35;66.97;100522.92;;;;-50
2020/09/05 12:46:25;;;;;;;3.92;2.97;;;;;;;21.36;66.93;100540.03;;;;-50
2020/09/05 12:49:25;;;;;;;3.55;3.12;;;;;;;21.34;66.93;100534.16;;;;-51
2020/09/05 12:52:25;;;;;;;4.83;3.25;;;;;;;21.34;67.03;100533.99;;;;-50
2020/09/05 12:55:25;;;;;;;3.38;3.08;;;;;;;21.34;66.99;100532.36;;;;-50
2020/09/05 12:58:25;;;;;;;3.31;3.01;;;;;;;21.35;66.98;100530.16;;;;-50
2020/09/05 13:01:25;;;;;;;4.97;3.13;;;;;;;21.34;67.00;100536.03;;;;-50
2020/09/05 13:04:25;;;;;;;3.71;3.04;;;;;;;21.35;66.98;100540.02;;;;-50
2020/09/05 13:07:25;;;;;;;3.48;3.17;;;;;;;21.34;66.95;100542.47;;;;-50
2020/09/05 13:10:25;;;;;;;3.33;3.03;;;;;;;21.34;66.99;100540.60;;;;-50
2020/09/05 13:13:25;;;;;;;3.08;2.85;;;;;;;21.34;66.96;100539.63;;;;-51
2020/09/05 13:16:25;;;;;;;3.07;2.76;;;;;;;21.34;66.96;100537.02;;;;-50
2020/09/05 13:19:25;;;;;;;3.55;2.90;;;;;;;21.34;67.01;100538.97;;;;-52
2020/09/05 13:22:25;;;;;;;5.02;3.15;;;;;;;21.36;67.06;100541.17;;;;-51
2020/09/05 13:25:25;;;;;;;4.39;3.06;;;;;;;21.38;66.99;100535.95;;;;-53
2020/09/05 13:28:25;;;;;;;3.78;2.93;;;;;;;21.40;67.08;100533.19;;;;-59
2020/09/05 13:31:25;;;;;;;4.04;2.83;;;;;;;21.41;67.08;100537.66;;;;-55
2020/09/05 13:34:25;;;;;;;3.74;3.13;;;;;;;21.43;67.03;100539.56;;;;-46
2020/09/05 13:37:25;;;;;;;3.33;2.80;;;;;;;21.46;67.05;100543.95;;;;-53
2020/09/05 13:40:25;;;;;;;4.00;2.98;;;;;;;21.48;67.17;100543.79;;;;-43
2020/09/05 13:43:24;;;;;;;4.81;2.98;;;;;;;21.48;67.10;100538.35;;;;-51
2020/09/05 13:46:25;;;;;;;5.55;2.79;;;;;;;21.51;67.23;100535.24;;;;-53
2020/09/05 13:49:25;;;;;;;3.18;2.95;;;;;;;21.52;67.13;100538.56;;;;-56
2020/09/05 13:52:25;;;;;;;4.91;2.98;;;;;;;21.52;66.97;100534.00;;;;-56
2020/09/05 13:55:25;;;;;;;4.19;2.89;;;;;;;21.53;67.05;100539.23;;;;-49
2020/09/05 13:58:25;;;;;;;4.46;3.06;;;;;;;21.55;67.01;100538.33;;;;-52
2020/09/05 14:01:25;;;;;;;8.76;3.20;;;;;;;21.54;67.24;100542.42;;;;-56
2020/09/05 14:04:25;;;;;;;12.31;3.03;;;;;;;21.56;67.30;100539.47;;;;-46
2020/09/05 14:07:24;;;;;;;7.77;3.01;;;;;;;21.58;67.28;100545.44;;;;-53
2020/09/05 14:10:25;;;;;;;7.65;3.25;;;;;;;21.60;67.40;100541.50;;;;-56
2020/09/05 14:13:25;;;;;;;10.63;3.35;;;;;;;21.63;67.26;100541.27;;;;-53
2020/09/05 14:16:25;;;;;;;11.39;3.41;;;;;;;21.65;67.33;100544.68;;;;-59
2020/09/05 14:19:25;;;;;;;10.37;3.32;;;;;;;21.67;67.10;100545.34;;;;-54
2020/09/05 14:22:25;;;;;;;9.51;3.32;;;;;;;21.69;67.25;100547.62;;;;-46
2020/09/05 14:25:25;;;;;;;8.31;3.27;;;;;;;21.69;67.33;100545.66;;;;-51
2020/09/05 14:28:25;;;;;;;6.71;3.37;;;;;;;21.70;67.37;100531.70;;;;-59
2020/09/05 14:31:25;;;;;;;5.95;3.00;;;;;;;21.71;67.36;100526.34;;;;-47
2020/09/05 14:34:25;;;;;;;6.56;3.32;;;;;;;21.72;67.22;100530.64;;;;-57
2020/09/05 14:37:25;;;;;;;6.77;3.30;;;;;;;21.73;67.20;100535.45;;;;-58
2020/09/05 14:40:25;;;;;;;5.31;3.07;;;;;;;21.74;67.31;100534.30;;;;-56
2020/09/05 14:43:25;;;;;;;6.65;3.31;;;;;;;21.76;67.16;100535.84;;;;-59
2020/09/05 14:46:25;;;;;;;4.95;3.31;;;;;;;21.77;67.12;100536.11;;;;-50
2020/09/05 14:49:25;;;;;;;7.23;3.24;;;;;;;21.76;67.01;100537.23;;;;-58
2020/09/05 14:52:25;;;;;;;5.57;2.95;;;;;;;21.76;67.17;100538.55;;;;-58
2020/09/05 14:55:25;;;;;;;5.72;3.09;;;;;;;21.76;67.12;100544.17;;;;-60
2020/09/05 14:58:25;;;;;;;6.77;3.14;;;;;;;21.75;66.98;100544.98;;;;-58
2020/09/05 15:01:25;;;;;;;4.39;3.20;;;;;;;21.74;67.05;100551.77;;;;-60
2020/09/05 15:04:25;;;;;;;8.37;3.38;;;;;;;21.73;67.01;100556.02;;;;-59
2020/09/05 15:07:25;;;;;;;5.69;3.11;;;;;;;21.72;66.98;100558.37;;;;-49
2020/09/05 15:10:25;;;;;;;5.89;3.17;;;;;;;21.72;67.02;100561.39;;;;-49
2020/09/05 15:13:24;;;;;;;10.45;3.19;;;;;;;21.70;67.03;100567.59;;;;-52
2020/09/05 15:16:25;;;;;;;7.44;3.28;;;;;;;21.70;67.16;100571.02;;;;-45
2020/09/05 15:19:25;;;;;;;14.79;3.67;;;;;;;21.70;67.32;100560.91;;;;-46
2020/09/05 15:22:25;;;;;;;15.82;3.85;;;;;;;21.71;67.44;100559.20;;;;-47
2020/09/05 15:25:25;;;;;;;17.39;4.06;;;;;;;21.73;67.34;100558.79;;;;-47
2020/09/05 15:28:25;;;;;;;20.33;3.65;;;;;;;21.76;67.31;100557.88;;;;-45
2020/09/05 15:31:24;;;;;;;21.79;3.96;;;;;;;21.76;67.34;100550.30;;;;-46
2020/09/05 15:34:25;;;;;;;17.29;3.63;;;;;;;21.78;67.42;100541.47;;;;-52
2020/09/05 15:37:25;;;;;;;15.33;3.84;;;;;;;21.79;67.42;100544.34;;;;-49
2020/09/05 15:40:25;;;;;;;17.69;4.14;;;;;;;21.81;67.40;100546.60;;;;-48
2020/09/05 15:43:25;;;;;;;14.48;3.98;;;;;;;21.83;67.49;100541.53;;;;-53
2020/09/05 15:46:25;;;;;;;16.41;4.08;;;;;;;21.84;67.39;100547.34;;;;-46
2020/09/05 15:49:25;;;;;;;25.11;4.37;;;;;;;21.85;67.62;100535.91;;;;-51
2020/09/05 15:52:25;;;;;;;18.91;4.09;;;;;;;21.85;67.29;100525.70;;;;-48
2020/09/05 15:55:25;;;;;;;16.57;4.33;;;;;;;21.87;67.37;100526.44;;;;-49
2020/09/05 15:58:25;;;;;;;19.09;4.39;;;;;;;21.87;67.33;100526.38;;;;-51
2020/09/05 16:01:25;;;;;;;16.38;3.74;;;;;;;21.88;67.18;100526.94;;;;-52
2020/09/05 16:04:25;;;;;;;21.22;4.10;;;;;;;21.88;67.22;100527.84;;;;-48
2020/09/05 16:07:25;;;;;;;16.34;4.01;;;;;;;21.88;67.34;100532.97;;;;-49
2020/09/05 16:10:25;;;;;;;20.01;3.87;;;;;;;21.88;67.30;100549.94;;;;-51
2020/09/05 16:13:24;;;;;;;14.22;3.99;;;;;;;21.88;67.23;100548.89;;;;-46
2020/09/05 16:16:25;;;;;;;10.86;3.62;;;;;;;21.85;67.24;100556.73;;;;-46
2020/09/05 16:19:25;;;;;;;16.65;3.81;;;;;;;21.86;67.30;100555.67;;;;-46
2020/09/05 16:22:25;;;;;;;11.23;3.49;;;;;;;21.85;67.08;100550.94;;;;-47
2020/09/05 16:25:25;;;;;;;14.92;3.78;;;;;;;21.85;67.10;100551.33;;;;-47
2020/09/05 16:28:25;;;;;;;13.63;3.78;;;;;;;21.82;67.07;100559.00;;;;-46
2020/09/05 16:31:25;;;;;;;14.48;3.44;;;;;;;21.82;67.13;100551.59;;;;-46
2020/09/05 16:34:25;;;;;;;12.38;3.74;;;;;;;21.82;67.09;100547.92;;;;-46
2020/09/05 16:37:25;;;;;;;8.81;3.26;;;;;;;21.81;67.04;100557.64;;;;-55
2020/09/05 16:40:25;;;;;;;8.89;3.52;;;;;;;21.79;67.12;100560.14;;;;-56